sensor_id;sensor_type;location;lat;lon;timestamp;P1;durP1;ratioP1;P2;durP2;ratioP2
72904;SDS011;61048;52.162;4.516;2022-07-23T00:01:37;1.88;;;1.23;;
72904;SDS011;61048;52.162;4.516;2022-07-23T00:04:06;2.60;;;1.02;;
72904;SDS011;61048;52.162;4.516;2022-07-23T00:06:33;1.65;;;1.02;;
72904;SDS011;61048;52.162;4.516;2022-07-23T00:08:59;1.25;;;0.73;;
72904;SDS011;61048;52.162;4.516;2022-07-23T00:11:28;1.50;;;0.82;;
72904;SDS011;61048;52.162;4.516;2022-07-23T00:13:54;2.05;;;0.90;;
72904;SDS011;61048;52.162;4.516;2022-07-23T00:16:22;1.95;;;0.32;;
72904;SDS011;61048;52.162;4.516;2022-07-23T00:18:49;2.15;;;0.70;;
72904;SDS011;61048;52.162;4.516;2022-07-23T00:21:16;2.65;;;0.90;;
72904;SDS011;61048;52.162;4.516;2022-07-23T00:23:43;1.95;;;0.80;;
72904;SDS011;61048;52.162;4.516;2022-07-23T00:26:10;2.00;;;0.70;;
72904;SDS011;61048;52.162;4.516;2022-07-23T00:28:38;1.60;;;1.08;;
72904;SDS011;61048;52.162;4.516;2022-07-23T00:31:04;3.15;;;1.27;;
72904;SDS011;61048;52.162;4.516;2022-07-23T00:33:31;1.73;;;1.15;;
72904;SDS011;61048;52.162;4.516;2022-07-23T00:35:58;1.40;;;0.88;;
72904;SDS011;61048;52.162;4.516;2022-07-23T00:38:25;1.30;;;0.45;;
72904;SDS011;61048;52.162;4.516;2022-07-23T00:40:52;2.13;;;1.08;;
72904;SDS011;61048;52.162;4.516;2022-07-23T00:43:19;1.92;;;1.10;;
72904;SDS011;61048;52.162;4.516;2022-07-23T00:45:48;1.67;;;0.98;;
72904;SDS011;61048;52.162;4.516;2022-07-23T00:48:14;1.88;;;1.25;;
72904;SDS011;61048;52.162;4.516;2022-07-23T00:50:42;2.22;;;1.30;;
72904;SDS011;61048;52.162;4.516;2022-07-23T00:53:09;1.00;;;0.60;;
72904;SDS011;61048;52.162;4.516;2022-07-23T00:55:36;1.65;;;1.20;;
72904;SDS011;61048;52.162;4.516;2022-07-23T00:58:03;1.70;;;1.10;;
72904;SDS011;61048;52.162;4.516;2022-07-23T01:00:31;1.88;;;1.00;;
72904;SDS011;61048;52.162;4.516;2022-07-23T01:02:59;1.38;;;1.08;;
72904;SDS011;61048;52.162;4.516;2022-07-23T01:05:26;1.80;;;0.98;;
72904;SDS011;61048;52.162;4.516;2022-07-23T01:07:52;1.95;;;0.93;;
72904;SDS011;61048;52.162;4.516;2022-07-23T01:10:19;2.05;;;0.88;;
72904;SDS011;61048;52.162;4.516;2022-07-23T01:13:01;1.52;;;0.80;;
72904;SDS011;61048;52.162;4.516;2022-07-23T01:15:29;1.70;;;0.73;;
72904;SDS011;61048;52.162;4.516;2022-07-23T01:17:58;1.35;;;0.45;;
72904;SDS011;61048;52.162;4.516;2022-07-23T01:20:25;1.85;;;1.10;;
72904;SDS011;61048;52.162;4.516;2022-07-23T01:22:53;1.95;;;0.73;;
72904;SDS011;61048;52.162;4.516;2022-07-23T01:25:21;1.90;;;1.02;;
72904;SDS011;61048;52.162;4.516;2022-07-23T01:27:48;1.77;;;1.08;;
72904;SDS011;61048;52.162;4.516;2022-07-23T01:30:15;1.52;;;0.40;;
72904;SDS011;61048;52.162;4.516;2022-07-23T01:32:42;2.17;;;1.30;;
72904;SDS011;61048;52.162;4.516;2022-07-23T01:35:09;1.83;;;0.77;;
72904;SDS011;61048;52.162;4.516;2022-07-23T01:37:36;2.10;;;1.08;;
72904;SDS011;61048;52.162;4.516;2022-07-23T01:40:05;2.30;;;0.40;;
72904;SDS011;61048;52.162;4.516;2022-07-23T01:42:33;1.90;;;0.85;;
72904;SDS011;61048;52.162;4.516;2022-07-23T01:45:01;2.20;;;0.88;;
72904;SDS011;61048;52.162;4.516;2022-07-23T01:47:29;1.95;;;1.17;;
72904;SDS011;61048;52.162;4.516;2022-07-23T01:49:55;1.35;;;0.75;;
72904;SDS011;61048;52.162;4.516;2022-07-23T01:52:22;1.38;;;0.60;;
72904;SDS011;61048;52.162;4.516;2022-07-23T01:54:49;1.73;;;0.73;;
72904;SDS011;61048;52.162;4.516;2022-07-23T01:57:17;1.45;;;0.90;;
72904;SDS011;61048;52.162;4.516;2022-07-23T01:59:44;1.98;;;1.20;;
72904;SDS011;61048;52.162;4.516;2022-07-23T02:02:11;2.20;;;0.98;;
72904;SDS011;61048;52.162;4.516;2022-07-23T02:04:38;2.80;;;0.90;;
72904;SDS011;61048;52.162;4.516;2022-07-23T02:07:04;2.47;;;0.57;;
72904;SDS011;61048;52.162;4.516;2022-07-23T02:09:32;1.83;;;0.82;;
72904;SDS011;61048;52.162;4.516;2022-07-23T02:11:59;1.60;;;1.08;;
72904;SDS011;61048;52.162;4.516;2022-07-23T02:14:27;2.95;;;0.60;;
72904;SDS011;61048;52.162;4.516;2022-07-23T02:16:54;3.38;;;1.20;;
72904;SDS011;61048;52.162;4.516;2022-07-23T02:19:21;2.65;;;0.90;;
72904;SDS011;61048;52.162;4.516;2022-07-23T02:21:48;1.80;;;1.00;;
72904;SDS011;61048;52.162;4.516;2022-07-23T02:24:15;1.45;;;0.80;;
72904;SDS011;61048;52.162;4.516;2022-07-23T02:26:42;1.63;;;1.02;;
72904;SDS011;61048;52.162;4.516;2022-07-23T02:29:09;1.92;;;0.40;;
72904;SDS011;61048;52.162;4.516;2022-07-23T02:31:37;1.13;;;0.90;;
72904;SDS011;61048;52.162;4.516;2022-07-23T02:34:04;2.15;;;0.90;;
72904;SDS011;61048;52.162;4.516;2022-07-23T02:36:32;1.70;;;0.90;;
72904;SDS011;61048;52.162;4.516;2022-07-23T02:38:59;1.30;;;0.88;;
72904;SDS011;61048;52.162;4.516;2022-07-23T02:41:26;1.90;;;0.85;;
72904;SDS011;61048;52.162;4.516;2022-07-23T02:43:52;1.58;;;1.00;;
72904;SDS011;61048;52.162;4.516;2022-07-23T02:46:19;2.15;;;0.93;;
72904;SDS011;61048;52.162;4.516;2022-07-23T02:48:47;1.63;;;0.93;;
72904;SDS011;61048;52.162;4.516;2022-07-23T02:51:14;1.83;;;1.02;;
72904;SDS011;61048;52.162;4.516;2022-07-23T02:53:41;1.30;;;1.05;;
72904;SDS011;61048;52.162;4.516;2022-07-23T02:56:08;2.13;;;1.20;;
72904;SDS011;61048;52.162;4.516;2022-07-23T02:58:35;1.70;;;1.23;;
72904;SDS011;61048;52.162;4.516;2022-07-23T03:01:01;1.58;;;0.40;;
72904;SDS011;61048;52.162;4.516;2022-07-23T03:03:29;2.13;;;1.20;;
72904;SDS011;61048;52.162;4.516;2022-07-23T03:05:57;1.67;;;1.02;;
72904;SDS011;61048;52.162;4.516;2022-07-23T03:08:24;1.67;;;1.00;;
72904;SDS011;61048;52.162;4.516;2022-07-23T03:10:50;2.08;;;0.70;;
72904;SDS011;61048;52.162;4.516;2022-07-23T03:13:17;1.50;;;1.10;;
72904;SDS011;61048;52.162;4.516;2022-07-23T03:15:44;1.30;;;0.57;;
72904;SDS011;61048;52.162;4.516;2022-07-23T03:18:11;1.30;;;0.95;;
72904;SDS011;61048;52.162;4.516;2022-07-23T03:20:38;3.20;;;0.57;;
72904;SDS011;61048;52.162;4.516;2022-07-23T03:23:06;2.20;;;0.90;;
72904;SDS011;61048;52.162;4.516;2022-07-23T03:25:33;2.30;;;1.02;;
72904;SDS011;61048;52.162;4.516;2022-07-23T03:27:59;1.13;;;0.40;;
72904;SDS011;61048;52.162;4.516;2022-07-23T03:30:26;4.25;;;0.93;;
72904;SDS011;61048;52.162;4.516;2022-07-23T03:32:53;2.20;;;0.93;;
72904;SDS011;61048;52.162;4.516;2022-07-23T03:35:20;2.25;;;2.03;;
72904;SDS011;61048;52.162;4.516;2022-07-23T03:37:46;3.00;;;0.85;;
72904;SDS011;61048;52.162;4.516;2022-07-23T03:40:15;1.10;;;0.73;;
72904;SDS011;61048;52.162;4.516;2022-07-23T03:42:42;2.03;;;0.82;;
72904;SDS011;61048;52.162;4.516;2022-07-23T03:45:10;1.90;;;1.02;;
72904;SDS011;61048;52.162;4.516;2022-07-23T03:47:37;1.75;;;1.60;;
72904;SDS011;61048;52.162;4.516;2022-07-23T03:50:05;1.50;;;1.13;;
72904;SDS011;61048;52.162;4.516;2022-07-23T03:52:32;1.88;;;0.68;;
72904;SDS011;61048;52.162;4.516;2022-07-23T03:54:59;1.60;;;0.90;;
72904;SDS011;61048;52.162;4.516;2022-07-23T03:57:27;0.98;;;0.40;;
72904;SDS011;61048;52.162;4.516;2022-07-23T03:59:54;2.88;;;1.15;;
72904;SDS011;61048;52.162;4.516;2022-07-23T04:02:21;2.05;;;1.02;;
72904;SDS011;61048;52.162;4.516;2022-07-23T04:04:48;1.30;;;0.88;;
72904;SDS011;61048;52.162;4.516;2022-07-23T04:07:15;1.80;;;1.00;;
72904;SDS011;61048;52.162;4.516;2022-07-23T04:09:42;1.33;;;0.75;;
72904;SDS011;61048;52.162;4.516;2022-07-23T04:12:09;2.72;;;1.10;;
72904;SDS011;61048;52.162;4.516;2022-07-23T04:14:37;1.60;;;0.80;;
72904;SDS011;61048;52.162;4.516;2022-07-23T04:17:04;1.63;;;1.00;;
72904;SDS011;61048;52.162;4.516;2022-07-23T04:19:31;1.13;;;0.40;;
72904;SDS011;61048;52.162;4.516;2022-07-23T04:21:58;1.85;;;0.50;;
72904;SDS011;61048;52.162;4.516;2022-07-23T04:24:25;1.73;;;1.20;;
72904;SDS011;61048;52.162;4.516;2022-07-23T04:26:51;1.95;;;0.98;;
72904;SDS011;61048;52.162;4.516;2022-07-23T04:29:19;4.43;;;1.48;;
72904;SDS011;61048;52.162;4.516;2022-07-23T04:31:47;2.38;;;1.15;;
72904;SDS011;61048;52.162;4.516;2022-07-23T04:34:14;1.60;;;1.20;;
72904;SDS011;61048;52.162;4.516;2022-07-23T04:36:41;1.58;;;0.98;;
72904;SDS011;61048;52.162;4.516;2022-07-23T04:39:07;2.05;;;1.00;;
72904;SDS011;61048;52.162;4.516;2022-07-23T04:41:34;1.75;;;0.50;;
72904;SDS011;61048;52.162;4.516;2022-07-23T04:44:01;1.80;;;1.10;;
72904;SDS011;61048;52.162;4.516;2022-07-23T04:46:28;4.78;;;1.05;;
72904;SDS011;61048;52.162;4.516;2022-07-23T04:48:57;2.05;;;0.98;;
72904;SDS011;61048;52.162;4.516;2022-07-23T04:51:23;1.90;;;1.35;;
72904;SDS011;61048;52.162;4.516;2022-07-23T04:53:50;2.22;;;1.27;;
72904;SDS011;61048;52.162;4.516;2022-07-23T04:56:17;2.40;;;0.60;;
72904;SDS011;61048;52.162;4.516;2022-07-23T04:58:44;1.67;;;1.02;;
72904;SDS011;61048;52.162;4.516;2022-07-23T05:01:11;1.25;;;0.40;;
72904;SDS011;61048;52.162;4.516;2022-07-23T05:03:37;1.85;;;1.08;;
72904;SDS011;61048;52.162;4.516;2022-07-23T05:06:06;1.30;;;0.43;;
72904;SDS011;61048;52.162;4.516;2022-07-23T05:08:33;4.05;;;1.88;;
72904;SDS011;61048;52.162;4.516;2022-07-23T05:10:59;2.90;;;1.05;;
72904;SDS011;61048;52.162;4.516;2022-07-23T05:13:26;1.70;;;0.95;;
72904;SDS011;61048;52.162;4.516;2022-07-23T05:15:53;1.40;;;0.95;;
72904;SDS011;61048;52.162;4.516;2022-07-23T05:18:20;1.75;;;1.08;;
72904;SDS011;61048;52.162;4.516;2022-07-23T05:20:46;2.03;;;1.67;;
72904;SDS011;61048;52.162;4.516;2022-07-23T05:23:15;1.65;;;0.50;;
72904;SDS011;61048;52.162;4.516;2022-07-23T05:25:41;2.92;;;0.93;;
72904;SDS011;61048;52.162;4.516;2022-07-23T05:28:08;1.55;;;0.90;;
72904;SDS011;61048;52.162;4.516;2022-07-23T05:30:35;1.55;;;1.02;;
72904;SDS011;61048;52.162;4.516;2022-07-23T05:33:02;1.73;;;1.02;;
72904;SDS011;61048;52.162;4.516;2022-07-23T05:35:29;2.47;;;1.33;;
72904;SDS011;61048;52.162;4.516;2022-07-23T05:37:55;1.45;;;1.20;;
72904;SDS011;61048;52.162;4.516;2022-07-23T05:40:23;1.73;;;0.50;;
72904;SDS011;61048;52.162;4.516;2022-07-23T05:42:50;1.33;;;1.00;;
72904;SDS011;61048;52.162;4.516;2022-07-23T05:45:17;1.67;;;1.00;;
72904;SDS011;61048;52.162;4.516;2022-07-23T05:47:45;1.77;;;1.02;;
72904;SDS011;61048;52.162;4.516;2022-07-23T05:50:14;1.88;;;1.08;;
72904;SDS011;61048;52.162;4.516;2022-07-23T05:52:41;1.95;;;0.77;;
72904;SDS011;61048;52.162;4.516;2022-07-23T05:55:09;0.85;;;0.32;;
72904;SDS011;61048;52.162;4.516;2022-07-23T05:57:38;2.22;;;0.40;;
72904;SDS011;61048;52.162;4.516;2022-07-23T06:00:06;1.92;;;1.02;;
72904;SDS011;61048;52.162;4.516;2022-07-23T06:02:34;1.55;;;0.85;;
72904;SDS011;61048;52.162;4.516;2022-07-23T06:05:01;1.70;;;0.90;;
72904;SDS011;61048;52.162;4.516;2022-07-23T06:07:28;1.15;;;0.80;;
72904;SDS011;61048;52.162;4.516;2022-07-23T06:09:54;1.80;;;1.10;;
72904;SDS011;61048;52.162;4.516;2022-07-23T06:12:21;1.52;;;0.70;;
72904;SDS011;61048;52.162;4.516;2022-07-23T06:14:50;1.38;;;0.90;;
72904;SDS011;61048;52.162;4.516;2022-07-23T06:17:17;1.33;;;0.90;;
72904;SDS011;61048;52.162;4.516;2022-07-23T06:19:44;1.45;;;0.88;;
72904;SDS011;61048;52.162;4.516;2022-07-23T06:22:11;1.67;;;0.80;;
72904;SDS011;61048;52.162;4.516;2022-07-23T06:24:38;2.60;;;0.93;;
72904;SDS011;61048;52.162;4.516;2022-07-23T06:27:04;2.13;;;0.70;;
72904;SDS011;61048;52.162;4.516;2022-07-23T06:29:31;1.50;;;0.40;;
72904;SDS011;61048;52.162;4.516;2022-07-23T06:31:59;1.70;;;0.80;;
72904;SDS011;61048;52.162;4.516;2022-07-23T06:34:26;2.47;;;0.70;;
72904;SDS011;61048;52.162;4.516;2022-07-23T06:36:53;1.65;;;1.25;;
72904;SDS011;61048;52.162;4.516;2022-07-23T06:39:20;1.27;;;1.05;;
72904;SDS011;61048;52.162;4.516;2022-07-23T06:41:46;1.40;;;0.80;;
72904;SDS011;61048;52.162;4.516;2022-07-23T06:44:13;1.27;;;0.70;;
72904;SDS011;61048;52.162;4.516;2022-07-23T06:46:40;1.92;;;1.13;;
72904;SDS011;61048;52.162;4.516;2022-07-23T06:49:08;1.45;;;0.90;;
72904;SDS011;61048;52.162;4.516;2022-07-23T06:51:35;1.67;;;0.40;;
72904;SDS011;61048;52.162;4.516;2022-07-23T06:54:03;1.20;;;0.70;;
72904;SDS011;61048;52.162;4.516;2022-07-23T06:56:30;1.42;;;0.77;;
72904;SDS011;61048;52.162;4.516;2022-07-23T06:58:57;1.25;;;0.88;;
72904;SDS011;61048;52.162;4.516;2022-07-23T07:01:24;1.58;;;1.00;;
72904;SDS011;61048;52.162;4.516;2022-07-23T07:03:51;1.92;;;0.70;;
72904;SDS011;61048;52.162;4.516;2022-07-23T07:06:19;1.63;;;0.93;;
72904;SDS011;61048;52.162;4.516;2022-07-23T07:08:46;1.67;;;1.15;;
72904;SDS011;61048;52.162;4.516;2022-07-23T07:11:13;1.58;;;0.30;;
72904;SDS011;61048;52.162;4.516;2022-07-23T07:13:40;1.52;;;0.70;;
72904;SDS011;61048;52.162;4.516;2022-07-23T07:16:07;1.42;;;0.50;;
72904;SDS011;61048;52.162;4.516;2022-07-23T07:18:33;2.22;;;1.00;;
72904;SDS011;61048;52.162;4.516;2022-07-23T07:21:00;2.17;;;1.25;;
72904;SDS011;61048;52.162;4.516;2022-07-23T07:23:28;2.28;;;0.85;;
72904;SDS011;61048;52.162;4.516;2022-07-23T07:25:55;1.67;;;0.80;;
72904;SDS011;61048;52.162;4.516;2022-07-23T07:28:22;2.08;;;0.80;;
72904;SDS011;61048;52.162;4.516;2022-07-23T07:30:49;1.38;;;0.90;;
72904;SDS011;61048;52.162;4.516;2022-07-23T07:33:16;1.30;;;0.70;;
72904;SDS011;61048;52.162;4.516;2022-07-23T07:35:43;2.40;;;1.10;;
72904;SDS011;61048;52.162;4.516;2022-07-23T07:38:09;1.30;;;0.82;;
72904;SDS011;61048;52.162;4.516;2022-07-23T07:40:37;1.42;;;0.82;;
72904;SDS011;61048;52.162;4.516;2022-07-23T07:43:04;1.38;;;1.00;;
72904;SDS011;61048;52.162;4.516;2022-07-23T07:45:31;2.58;;;1.05;;
72904;SDS011;61048;52.162;4.516;2022-07-23T07:47:58;1.45;;;0.70;;
72904;SDS011;61048;52.162;4.516;2022-07-23T07:50:25;2.28;;;1.00;;
72904;SDS011;61048;52.162;4.516;2022-07-23T07:52:52;3.28;;;0.70;;
72904;SDS011;61048;52.162;4.516;2022-07-23T07:55:19;1.15;;;0.77;;
72904;SDS011;61048;52.162;4.516;2022-07-23T07:57:47;1.30;;;0.30;;
72904;SDS011;61048;52.162;4.516;2022-07-23T08:00:14;1.75;;;0.80;;
72904;SDS011;61048;52.162;4.516;2022-07-23T08:02:43;1.00;;;0.38;;
72904;SDS011;61048;52.162;4.516;2022-07-23T08:05:11;1.02;;;0.30;;
72904;SDS011;61048;52.162;4.516;2022-07-23T08:07:38;1.15;;;0.22;;
72904;SDS011;61048;52.162;4.516;2022-07-23T08:10:06;2.25;;;1.17;;
72904;SDS011;61048;52.162;4.516;2022-07-23T08:12:38;1.85;;;0.68;;
72904;SDS011;61048;52.162;4.516;2022-07-23T08:15:08;1.55;;;0.98;;
72904;SDS011;61048;52.162;4.516;2022-07-23T08:17:35;1.48;;;0.68;;
72904;SDS011;61048;52.162;4.516;2022-07-23T08:20:02;1.00;;;0.40;;
72904;SDS011;61048;52.162;4.516;2022-07-23T08:22:46;2.20;;;1.20;;
72904;SDS011;61048;52.162;4.516;2022-07-23T08:25:14;1.98;;;0.30;;
72904;SDS011;61048;52.162;4.516;2022-07-23T08:27:42;1.88;;;0.90;;
72904;SDS011;61048;52.162;4.516;2022-07-23T08:30:10;1.92;;;0.45;;
72904;SDS011;61048;52.162;4.516;2022-07-23T08:32:50;1.13;;;0.63;;
72904;SDS011;61048;52.162;4.516;2022-07-23T08:35:21;2.17;;;0.80;;
72904;SDS011;61048;52.162;4.516;2022-07-23T08:37:49;1.13;;;0.75;;
72904;SDS011;61048;52.162;4.516;2022-07-23T08:40:16;1.42;;;0.85;;
72904;SDS011;61048;52.162;4.516;2022-07-23T08:42:44;2.45;;;1.08;;
72904;SDS011;61048;52.162;4.516;2022-07-23T08:45:14;1.23;;;0.30;;
72904;SDS011;61048;52.162;4.516;2022-07-23T08:47:43;2.28;;;0.85;;
72904;SDS011;61048;52.162;4.516;2022-07-23T08:50:10;1.95;;;1.05;;
72904;SDS011;61048;52.162;4.516;2022-07-23T08:52:37;1.88;;;0.60;;
72904;SDS011;61048;52.162;4.516;2022-07-23T08:55:06;1.10;;;0.60;;
72904;SDS011;61048;52.162;4.516;2022-07-23T08:57:34;1.95;;;1.00;;
72904;SDS011;61048;52.162;4.516;2022-07-23T09:00:02;1.27;;;0.70;;
72904;SDS011;61048;52.162;4.516;2022-07-23T09:02:31;1.33;;;0.98;;
72904;SDS011;61048;52.162;4.516;2022-07-23T09:05:05;1.25;;;0.60;;
72904;SDS011;61048;52.162;4.516;2022-07-23T09:07:34;1.30;;;0.40;;
72904;SDS011;61048;52.162;4.516;2022-07-23T09:10:04;1.35;;;0.75;;
72904;SDS011;61048;52.162;4.516;2022-07-23T09:12:33;2.20;;;0.68;;
72904;SDS011;61048;52.162;4.516;2022-07-23T09:15:03;1.38;;;0.55;;
72904;SDS011;61048;52.162;4.516;2022-07-23T09:17:38;1.63;;;1.00;;
72904;SDS011;61048;52.162;4.516;2022-07-23T09:20:07;1.70;;;0.80;;
72904;SDS011;61048;52.162;4.516;2022-07-23T09:22:35;1.75;;;0.85;;
72904;SDS011;61048;52.162;4.516;2022-07-23T09:25:06;2.97;;;0.80;;
72904;SDS011;61048;52.162;4.516;2022-07-23T09:27:50;1.20;;;0.30;;
72904;SDS011;61048;52.162;4.516;2022-07-23T09:30:19;1.60;;;0.80;;
72904;SDS011;61048;52.162;4.516;2022-07-23T09:33:08;1.35;;;0.80;;
72904;SDS011;61048;52.162;4.516;2022-07-23T09:35:45;1.42;;;0.60;;
72904;SDS011;61048;52.162;4.516;2022-07-23T09:38:13;3.08;;;1.05;;
72904;SDS011;61048;52.162;4.516;2022-07-23T09:40:41;1.58;;;0.88;;
72904;SDS011;61048;52.162;4.516;2022-07-23T09:43:08;1.65;;;0.93;;
72904;SDS011;61048;52.162;4.516;2022-07-23T09:45:34;1.63;;;0.70;;
72904;SDS011;61048;52.162;4.516;2022-07-23T09:48:12;2.10;;;0.70;;
72904;SDS011;61048;52.162;4.516;2022-07-23T09:50:40;1.45;;;0.75;;
72904;SDS011;61048;52.162;4.516;2022-07-23T09:53:08;2.50;;;0.90;;
72904;SDS011;61048;52.162;4.516;2022-07-23T09:55:35;1.35;;;0.77;;
72904;SDS011;61048;52.162;4.516;2022-07-23T09:58:03;1.58;;;0.25;;
72904;SDS011;61048;52.162;4.516;2022-07-23T10:00:31;1.85;;;0.28;;
72904;SDS011;61048;52.162;4.516;2022-07-23T10:02:59;1.88;;;0.82;;
72904;SDS011;61048;52.162;4.516;2022-07-23T10:05:28;1.10;;;0.73;;
72904;SDS011;61048;52.162;4.516;2022-07-23T10:07:56;1.20;;;0.60;;
72904;SDS011;61048;52.162;4.516;2022-07-23T10:10:25;1.23;;;0.57;;
72904;SDS011;61048;52.162;4.516;2022-07-23T10:12:53;1.48;;;0.30;;
72904;SDS011;61048;52.162;4.516;2022-07-23T10:15:49;1.45;;;0.40;;
72904;SDS011;61048;52.162;4.516;2022-07-23T10:18:16;2.22;;;0.73;;
72904;SDS011;61048;52.162;4.516;2022-07-23T10:20:45;1.60;;;0.45;;
72904;SDS011;61048;52.162;4.516;2022-07-23T10:23:14;1.85;;;0.40;;
72904;SDS011;61048;52.162;4.516;2022-07-23T10:25:49;1.02;;;0.50;;
72904;SDS011;61048;52.162;4.516;2022-07-23T10:28:39;1.23;;;0.30;;
72904;SDS011;61048;52.162;4.516;2022-07-23T10:31:14;3.00;;;0.90;;
72904;SDS011;61048;52.162;4.516;2022-07-23T10:33:54;1.17;;;0.60;;
72904;SDS011;61048;52.162;4.516;2022-07-23T10:36:27;2.08;;;0.98;;
72904;SDS011;61048;52.162;4.516;2022-07-23T10:39:04;1.50;;;0.82;;
72904;SDS011;61048;52.162;4.516;2022-07-23T10:41:34;1.77;;;0.50;;
72904;SDS011;61048;52.162;4.516;2022-07-23T10:44:07;2.33;;;1.25;;
72904;SDS011;61048;52.162;4.516;2022-07-23T10:46:35;1.85;;;0.90;;
72904;SDS011;61048;52.162;4.516;2022-07-23T10:54:52;1.15;;;0.60;;
72904;SDS011;61048;52.162;4.516;2022-07-23T10:57:20;1.48;;;0.32;;
72904;SDS011;61048;52.162;4.516;2022-07-23T11:02:43;2.30;;;0.98;;
72904;SDS011;61048;52.162;4.516;2022-07-23T11:05:12;1.98;;;1.08;;
72904;SDS011;61048;52.162;4.516;2022-07-23T11:10:40;9.40;;;2.42;;
72904;SDS011;61048;52.162;4.516;2022-07-23T11:16:04;23.83;;;4.95;;
72904;SDS011;61048;52.162;4.516;2022-07-23T11:24:23;29.45;;;8.10;;
72904;SDS011;61048;52.162;4.516;2022-07-23T11:27:00;18.77;;;4.30;;
72904;SDS011;61048;52.162;4.516;2022-07-23T11:32:22;17.73;;;4.63;;
72904;SDS011;61048;52.162;4.516;2022-07-23T11:35:03;21.70;;;6.20;;
72904;SDS011;61048;52.162;4.516;2022-07-23T11:37:48;20.60;;;4.80;;
72904;SDS011;61048;52.162;4.516;2022-07-23T11:40:20;19.73;;;5.28;;
72904;SDS011;61048;52.162;4.516;2022-07-23T11:42:55;22.42;;;4.90;;
72904;SDS011;61048;52.162;4.516;2022-07-23T11:45:24;23.75;;;5.05;;
72904;SDS011;61048;52.162;4.516;2022-07-23T11:47:56;16.30;;;5.15;;
72904;SDS011;61048;52.162;4.516;2022-07-23T11:50:23;16.13;;;3.95;;
72904;SDS011;61048;52.162;4.516;2022-07-23T11:52:51;18.40;;;4.53;;
72904;SDS011;61048;52.162;4.516;2022-07-23T11:55:20;19.20;;;5.40;;
72904;SDS011;61048;52.162;4.516;2022-07-23T11:57:47;17.13;;;4.80;;
72904;SDS011;61048;52.162;4.516;2022-07-23T12:00:17;17.25;;;5.25;;
72904;SDS011;61048;52.162;4.516;2022-07-23T12:02:46;9.88;;;3.33;;
72904;SDS011;61048;52.162;4.516;2022-07-23T12:05:15;9.68;;;3.20;;
72904;SDS011;61048;52.162;4.516;2022-07-23T12:07:43;10.73;;;3.83;;
72904;SDS011;61048;52.162;4.516;2022-07-23T12:10:15;14.32;;;4.22;;
72904;SDS011;61048;52.162;4.516;2022-07-23T12:12:46;12.73;;;3.38;;
72904;SDS011;61048;52.162;4.516;2022-07-23T12:15:15;14.90;;;3.88;;
72904;SDS011;61048;52.162;4.516;2022-07-23T12:17:44;13.50;;;2.95;;
72904;SDS011;61048;52.162;4.516;2022-07-23T12:20:13;13.57;;;2.80;;
72904;SDS011;61048;52.162;4.516;2022-07-23T12:22:42;8.60;;;2.10;;
72904;SDS011;61048;52.162;4.516;2022-07-23T12:25:11;5.63;;;1.85;;
72904;SDS011;61048;52.162;4.516;2022-07-23T12:27:40;6.18;;;1.90;;
72904;SDS011;61048;52.162;4.516;2022-07-23T12:30:21;6.60;;;1.30;;
72904;SDS011;61048;52.162;4.516;2022-07-23T12:32:51;6.47;;;1.42;;
72904;SDS011;61048;52.162;4.516;2022-07-23T12:35:19;4.35;;;1.92;;
72904;SDS011;61048;52.162;4.516;2022-07-23T12:37:47;5.50;;;2.33;;
72904;SDS011;61048;52.162;4.516;2022-07-23T12:40:21;6.00;;;2.85;;
72904;SDS011;61048;52.162;4.516;2022-07-23T12:42:50;5.03;;;1.63;;
72904;SDS011;61048;52.162;4.516;2022-07-23T12:45:20;5.20;;;1.63;;
72904;SDS011;61048;52.162;4.516;2022-07-23T12:47:54;3.60;;;1.70;;
72904;SDS011;61048;52.162;4.516;2022-07-23T12:53:24;6.85;;;1.90;;
72904;SDS011;61048;52.162;4.516;2022-07-23T12:55:56;6.50;;;2.50;;
72904;SDS011;61048;52.162;4.516;2022-07-23T12:58:26;7.80;;;2.67;;
72904;SDS011;61048;52.162;4.516;2022-07-23T13:01:04;5.40;;;1.23;;
72904;SDS011;61048;52.162;4.516;2022-07-23T13:03:32;2.72;;;1.10;;
72904;SDS011;61048;52.162;4.516;2022-07-23T13:06:02;3.22;;;1.50;;
72904;SDS011;61048;52.162;4.516;2022-07-23T13:08:30;4.78;;;1.02;;
72904;SDS011;61048;52.162;4.516;2022-07-23T13:11:04;2.28;;;1.45;;
72904;SDS011;61048;52.162;4.516;2022-07-23T13:13:32;1.95;;;1.50;;
72904;SDS011;61048;52.162;4.516;2022-07-23T13:16:01;3.55;;;1.60;;
72904;SDS011;61048;52.162;4.516;2022-07-23T13:18:30;4.68;;;2.03;;
72904;SDS011;61048;52.162;4.516;2022-07-23T13:20:57;3.75;;;1.50;;
72904;SDS011;61048;52.162;4.516;2022-07-23T13:23:24;5.70;;;1.08;;
72904;SDS011;61048;52.162;4.516;2022-07-23T13:25:52;3.13;;;1.30;;
72904;SDS011;61048;52.162;4.516;2022-07-23T13:28:19;3.42;;;1.52;;
72904;SDS011;61048;52.162;4.516;2022-07-23T13:30:48;4.63;;;1.55;;
72904;SDS011;61048;52.162;4.516;2022-07-23T13:33:17;3.35;;;1.17;;
72904;SDS011;61048;52.162;4.516;2022-07-23T13:35:45;3.17;;;0.90;;
72904;SDS011;61048;52.162;4.516;2022-07-23T13:38:12;4.35;;;1.35;;
72904;SDS011;61048;52.162;4.516;2022-07-23T13:40:39;3.40;;;1.60;;
72904;SDS011;61048;52.162;4.516;2022-07-23T13:43:08;4.65;;;1.60;;
72904;SDS011;61048;52.162;4.516;2022-07-23T13:45:36;5.07;;;1.15;;
72904;SDS011;61048;52.162;4.516;2022-07-23T13:48:04;2.47;;;1.13;;
72904;SDS011;61048;52.162;4.516;2022-07-23T13:50:33;3.72;;;1.05;;
72904;SDS011;61048;52.162;4.516;2022-07-23T13:53:02;4.72;;;1.60;;
72904;SDS011;61048;52.162;4.516;2022-07-23T13:55:30;3.67;;;1.40;;
72904;SDS011;61048;52.162;4.516;2022-07-23T13:57:57;2.20;;;1.20;;
72904;SDS011;61048;52.162;4.516;2022-07-23T14:00:24;4.03;;;1.40;;
72904;SDS011;61048;52.162;4.516;2022-07-23T14:02:52;2.22;;;1.10;;
72904;SDS011;61048;52.162;4.516;2022-07-23T14:05:19;3.72;;;1.30;;
72904;SDS011;61048;52.162;4.516;2022-07-23T14:07:48;3.55;;;1.20;;
72904;SDS011;61048;52.162;4.516;2022-07-23T14:10:16;4.10;;;1.55;;
72904;SDS011;61048;52.162;4.516;2022-07-23T14:12:44;2.15;;;1.45;;
72904;SDS011;61048;52.162;4.516;2022-07-23T14:15:12;4.65;;;1.35;;
72904;SDS011;61048;52.162;4.516;2022-07-23T14:17:40;3.17;;;1.40;;
72904;SDS011;61048;52.162;4.516;2022-07-23T14:20:08;3.17;;;1.67;;
72904;SDS011;61048;52.162;4.516;2022-07-23T14:22:36;3.28;;;1.40;;
72904;SDS011;61048;52.162;4.516;2022-07-23T14:25:06;1.95;;;1.20;;
72904;SDS011;61048;52.162;4.516;2022-07-23T14:27:34;2.28;;;0.90;;
72904;SDS011;61048;52.162;4.516;2022-07-23T14:30:02;3.97;;;1.50;;
72904;SDS011;61048;52.162;4.516;2022-07-23T14:32:30;3.00;;;1.23;;
72904;SDS011;61048;52.162;4.516;2022-07-23T14:34:57;2.88;;;1.48;;
72904;SDS011;61048;52.162;4.516;2022-07-23T14:37:24;3.03;;;1.40;;
72904;SDS011;61048;52.162;4.516;2022-07-23T14:39:51;2.67;;;1.25;;
72904;SDS011;61048;52.162;4.516;2022-07-23T14:42:19;3.45;;;0.75;;
72904;SDS011;61048;52.162;4.516;2022-07-23T14:44:46;2.22;;;0.82;;
72904;SDS011;61048;52.162;4.516;2022-07-23T14:47:13;3.92;;;0.70;;
72904;SDS011;61048;52.162;4.516;2022-07-23T14:49:40;4.28;;;0.90;;
72904;SDS011;61048;52.162;4.516;2022-07-23T14:52:07;2.50;;;0.90;;
72904;SDS011;61048;52.162;4.516;2022-07-23T14:54:34;2.17;;;0.70;;
72904;SDS011;61048;52.162;4.516;2022-07-23T14:57:02;2.47;;;0.90;;
72904;SDS011;61048;52.162;4.516;2022-07-23T14:59:31;2.72;;;0.80;;
72904;SDS011;61048;52.162;4.516;2022-07-23T15:01:58;3.83;;;1.63;;
72904;SDS011;61048;52.162;4.516;2022-07-23T15:04:24;3.00;;;1.27;;
72904;SDS011;61048;52.162;4.516;2022-07-23T15:06:51;3.63;;;1.23;;
72904;SDS011;61048;52.162;4.516;2022-07-23T15:09:18;2.53;;;1.63;;
72904;SDS011;61048;52.162;4.516;2022-07-23T15:11:45;7.53;;;1.92;;
72904;SDS011;61048;52.162;4.516;2022-07-23T15:14:12;2.28;;;1.20;;
72904;SDS011;61048;52.162;4.516;2022-07-23T15:16:40;4.63;;;1.70;;
72904;SDS011;61048;52.162;4.516;2022-07-23T15:19:07;2.00;;;0.80;;
72904;SDS011;61048;52.162;4.516;2022-07-23T15:21:34;3.08;;;1.60;;